John_paul K — PBHY — position and weather

sailwx.info

Track history (hours):
 
Tides and Currents Weather Stations Pressure Air Temp Water Temp Dewpoint Dewpoint Depression Visibility Wind Speed Wind Dir Waves Ship Positions

John_paul K

Last reported at 2015-May-04 18:25 UTC. Time now 2015-May-05 19:19 UTC.
Position N 39°47' E 000°12'.

Length 90 m; draft 5.8 m.

Type: Cargo ship. MMSI: 245181000.

Date/timePositionNaut miles runAvg speedWind from/ knotsBaromVisibWave heightAir tempDewpointWater temp
2015-May-04 18:25N 39°47' E 000°12'14 4.1
2015-May-04 15:07N 39°57' E 000°01'0 0.0
2015-May-04 04:19N 39°57' E 000°01'0 0.0
2015-May-04 01:30N 39°57' E 000°01'0 0.0
2015-May-03 07:18N 39°57' E 000°01'71 1.7
2015-May-01 14:33N 38°49' E 000°25'19 8.5
2015-May-01 12:20N 38°31' E 000°18'17 9.2
2015-May-01 10:31N 38°17' E 000°06'9 9.1
2015-May-01 09:29N 38°09' W 000°00'8 9.1
2015-May-01 08:33N 38°02' W 000°06'9 9.4
2015-May-01 07:33N 37°55' W 000°13'1110.9
2015-May-01 06:33N 37°45' W 000°20'1110.5
2015-May-01 05:33N 37°37' W 000°28'9 9.1
2015-May-01 04:33N 37°30' W 000°35'9 9.2
2015-May-01 03:33N 37°24' W 000°44'9 9.0
2015-May-01 02:33N 37°18' W 000°52'9 9.2
2015-May-01 01:31N 37°12' W 001°02'38 9.2
2015-Apr-30 21:27N 36°47' W 001°37'8 9.1
2015-Apr-30 20:33N 36°41' W 001°45'10 9.1
2015-Apr-30 19:30N 36°35' W 001°53'9 9.4
2015-Apr-30 18:33N 36°29' W 002°02'9 9.0
2015-Apr-30 17:33N 36°24' W 002°10'9 8.9
2015-Apr-30 16:33N 36°21' W 002°21'9 9.0
2015-Apr-30 15:33N 36°19' W 002°32'9 9.2
2015-Apr-30 14:33N 36°18' W 002°43'127 9.8
2015-Apr-30 01:33N 35°55' W 005°18'1 1.1
2015-Apr-30 00:33N 35°54' W 005°19'0 0.0
2015-Apr-29 23:33N 35°54' W 005°19'2 1.7
2015-Apr-29 22:33N 35°55' W 005°19'0 0.2
2015-Apr-29 21:33N 35°56' W 005°20'0 0.1
2015-Apr-29 20:33N 35°56' W 005°19'0 0.0
2015-Apr-29 19:33N 35°56' W 005°20'8 8.3
2015-Apr-29 18:33N 35°57' W 005°30'229 8.4
2015-Apr-28 15:16N 37°37' W 009°46'46 9.7
2015-Apr-28 10:32N 38°22' W 009°59'10 9.7
2015-Apr-28 09:33N 38°31' W 010°02'10 9.7
2015-Apr-28 08:33N 38°41' W 010°05'10 9.5
2015-Apr-28 07:31N 38°51' W 010°05'1010.7
2015-Apr-28 06:33N 39°01' W 010°05'  
2015-Apr-24 18:29N 50°20' W 004°09'  
Track history (hours):
 
Tides and Currents Weather Stations Pressure Air Temp Water Temp Dewpoint Dewpoint Depression Visibility Wind Speed Wind Dir Waves Ship Positions

John_paul K

Last reported at 2015-May-04 18:25 UTC. Time now 2015-May-05 19:19 UTC.
Position N 39°47' E 000°12'.

Length 90 m; draft 5.8 m.

Type: Cargo ship. MMSI: 245181000.

Date/timePositionNaut miles runAvg speedWind from/ knotsBaromVisibWave heightAir tempDewpointWater temp
2015-May-04 18:25N 39°47' E 000°12'14 4.1
2015-May-04 15:07N 39°57' E 000°01'0 0.0
2015-May-04 04:19N 39°57' E 000°01'0 0.0
2015-May-04 01:30N 39°57' E 000°01'0 0.0
2015-May-03 07:18N 39°57' E 000°01'71 1.7
2015-May-01 14:33N 38°49' E 000°25'19 8.5
2015-May-01 12:20N 38°31' E 000°18'17 9.2
2015-May-01 10:31N 38°17' E 000°06'9 9.1
2015-May-01 09:29N 38°09' W 000°00'8 9.1
2015-May-01 08:33N 38°02' W 000°06'9 9.4
2015-May-01 07:33N 37°55' W 000°13'1110.9
2015-May-01 06:33N 37°45' W 000°20'1110.5
2015-May-01 05:33N 37°37' W 000°28'9 9.1
2015-May-01 04:33N 37°30' W 000°35'9 9.2
2015-May-01 03:33N 37°24' W 000°44'9 9.0
2015-May-01 02:33N 37°18' W 000°52'9 9.2
2015-May-01 01:31N 37°12' W 001°02'38 9.2
2015-Apr-30 21:27N 36°47' W 001°37'8 9.1
2015-Apr-30 20:33N 36°41' W 001°45'10 9.1
2015-Apr-30 19:30N 36°35' W 001°53'9 9.4
2015-Apr-30 18:33N 36°29' W 002°02'9 9.0
2015-Apr-30 17:33N 36°24' W 002°10'9 8.9
2015-Apr-30 16:33N 36°21' W 002°21'9 9.0
2015-Apr-30 15:33N 36°19' W 002°32'9 9.2
2015-Apr-30 14:33N 36°18' W 002°43'127 9.8
2015-Apr-30 01:33N 35°55' W 005°18'1 1.1
2015-Apr-30 00:33N 35°54' W 005°19'0 0.0
2015-Apr-29 23:33N 35°54' W 005°19'2 1.7
2015-Apr-29 22:33N 35°55' W 005°19'0 0.2
2015-Apr-29 21:33N 35°56' W 005°20'0 0.1
2015-Apr-29 20:33N 35°56' W 005°19'0 0.0
2015-Apr-29 19:33N 35°56' W 005°20'8 8.3
2015-Apr-29 18:33N 35°57' W 005°30'229 8.4
2015-Apr-28 15:16N 37°37' W 009°46'46 9.7
2015-Apr-28 10:32N 38°22' W 009°59'10 9.7
2015-Apr-28 09:33N 38°31' W 010°02'10 9.7
2015-Apr-28 08:33N 38°41' W 010°05'10 9.5
2015-Apr-28 07:31N 38°51' W 010°05'1010.7
2015-Apr-28 06:33N 39°01' W 010°05'  
2015-Apr-24 18:29N 50°20' W 004°09'  

Dump ship's entire track history